Time;durP1;ratioP1;P1;durP2;ratioP2;P2;SDS_P1;SDS_P2;PMS_P1;PMS_P2;Temp;Humidity;BMP_temperature;BMP_pressure;BME280_temperature;BME280_humidity;BME280_pressure;Samples;Min_cycle;Max_cycle;Signal;HPM_P1;HPM_P2
2022/01/22 00:00:43;;;;;;;8.60;8.40;;;1.90;99.90;;;;;;5072592;28;20222;-80
2022/01/22 00:03:12;;;;;;;8.60;8.40;;;2.00;99.90;;;;;;5066137;28;20246;-80
2022/01/22 00:05:42;;;;;;;8.70;8.40;;;2.00;99.90;;;;;;5065454;28;20258;-80
2022/01/22 00:08:10;;;;;;;8.47;8.27;;;2.00;99.90;;;;;;5064351;28;20226;-80
2022/01/22 00:10:43;;;;;;;8.60;8.40;;;2.00;99.90;;;;;;5072494;28;20265;-80
2022/01/22 00:15:59;;;;;;;8.67;8.40;;;2.10;99.90;;;;;;5082386;28;20215;-81
2022/01/22 00:18:27;;;;;;;8.60;8.40;;;2.10;99.90;;;;;;5083278;28;20961;-81
2022/01/22 00:20:56;;;;;;;8.47;8.27;;;2.10;99.90;;;;;;5086306;28;20245;-81
2022/01/22 00:23:26;;;;;;;8.93;8.63;;;2.10;99.90;;;;;;5087378;28;20223;-81
2022/01/22 00:25:54;;;;;;;8.50;8.30;;;2.10;99.90;;;;;;5080078;28;20266;-81
2022/01/22 00:28:25;;;;;;;8.53;8.33;;;2.10;99.90;;;;;;5072319;28;20231;-80
2022/01/22 00:30:54;;;;;;;8.40;8.20;;;2.10;99.90;;;;;;5063484;28;20234;-81
2022/01/22 00:33:32;;;;;;;8.43;8.23;;;2.10;99.90;;;;;;5062900;28;20237;-81
2022/01/22 00:36:02;;;;;;;8.57;8.37;;;2.10;99.90;;;;;;5062985;28;20226;-81
2022/01/22 00:38:31;;;;;;;8.30;8.10;;;2.10;99.90;;;;;;5062764;28;20230;-81
2022/01/22 00:41:01;;;;;;;8.40;8.20;;;2.10;99.90;;;;;;5062247;28;20235;-81
2022/01/22 00:43:30;;;;;;;8.50;8.30;;;2.10;99.90;;;;;;5062265;28;20227;-81
2022/01/22 00:46:00;;;;;;;8.67;8.47;;;2.10;99.90;;;;;;5062003;28;20215;-81
2022/01/22 00:48:31;;;;;;;8.50;8.30;;;2.10;99.90;;;;;;5063476;28;20223;-81
2022/01/22 00:51:00;;;;;;;8.50;8.30;;;2.10;99.90;;;;;;5068609;28;20234;-81
2022/01/22 00:53:28;;;;;;;8.60;8.40;;;2.10;99.90;;;;;;5063335;28;20237;-79
2022/01/22 00:55:57;;;;;;;8.50;8.30;;;2.10;99.90;;;;;;5064009;28;20230;-79
2022/01/22 00:58:27;;;;;;;8.53;8.33;;;2.10;99.90;;;;;;5063504;28;20358;-80
2022/01/22 01:00:56;;;;;;;8.30;8.10;;;2.10;99.90;;;;;;5063615;28;20234;-79
2022/01/22 01:03:25;;;;;;;8.43;8.23;;;2.10;99.90;;;;;;5065801;28;20239;-80
2022/01/22 01:06:05;;;;;;;8.83;8.57;;;2.10;99.90;;;;;;5066566;28;20234;-79
2022/01/22 01:08:34;;;;;;;8.50;8.30;;;2.10;99.90;;;;;;5067348;28;20223;-79
2022/01/22 01:11:03;;;;;;;8.53;8.33;;;2.10;99.90;;;;;;5066122;28;20306;-80
2022/01/22 01:13:37;;;;;;;8.80;8.50;;;2.10;99.90;;;;;;5065880;28;20720;-80
2022/01/22 01:16:17;;;;;;;8.33;8.13;;;2.10;99.90;;;;;;5067278;28;21092;-80
2022/01/22 01:32:41;;;;;;;8.37;8.17;;;2.10;99.90;;;;;;5087464;28;20214;-80
2022/01/22 01:35:15;;;;;;;8.70;8.50;;;2.10;99.90;;;;;;5086165;28;20234;-81
2022/01/22 01:37:45;;;;;;;8.60;8.40;;;2.10;99.90;;;;;;5086559;28;20233;-78
2022/01/22 01:40:17;;;;;;;8.60;8.40;;;2.10;99.90;;;;;;5090995;28;20230;-79
2022/01/22 01:43:03;;;;;;;8.50;8.30;;;2.10;99.90;;;;;;5095616;28;20206;-78
2022/01/22 01:45:36;;;;;;;9.60;9.30;;;2.10;99.90;;;;;;5096800;28;20250;-79
2022/01/22 01:48:11;;;;;;;9.70;9.40;;;2.10;99.90;;;;;;5093134;28;20252;-78
2022/01/22 01:50:41;;;;;;;9.40;9.10;;;2.20;99.90;;;;;;5089064;28;20222;-79
2022/01/22 01:56:04;;;;;;;9.40;9.10;;;2.20;99.90;;;;;;5087809;28;20226;-79
2022/01/22 01:58:31;;;;;;;9.37;9.07;;;2.20;99.90;;;;;;5086662;28;20236;-78
2022/01/22 02:01:03;;;;;;;9.50;9.20;;;2.20;99.90;;;;;;5086318;28;20313;-78
2022/01/22 02:03:31;;;;;;;9.40;9.10;;;2.20;99.90;;;;;;5086358;28;20230;-79
2022/01/22 02:06:00;;;;;;;9.50;9.20;;;2.20;99.90;;;;;;5087323;28;20229;-79
2022/01/22 02:11:19;;;;;;;9.50;9.20;;;2.20;99.90;;;;;;5096651;28;20225;-79
2022/01/22 02:14:00;;;;;;;9.30;9.00;;;2.20;99.90;;;;;;5090328;28;20233;-79
2022/01/22 02:24:49;;;;;;;9.20;8.90;;;2.30;99.90;;;;;;5086218;28;20222;-79
2022/01/22 02:27:16;;;;;;;9.50;9.20;;;2.20;99.90;;;;;;5086116;28;20226;-79
2022/01/22 02:29:45;;;;;;;9.50;9.20;;;2.20;99.90;;;;;;5085504;28;20300;-79
2022/01/22 02:35:14;;;;;;;9.70;9.40;;;2.20;99.90;;;;;;5086198;28;20333;-79
2022/01/22 02:37:53;;;;;;;9.43;9.13;;;2.20;99.90;;;;;;5085722;28;20229;-79
2022/01/22 02:40:29;;;;;;;9.40;9.10;;;2.20;99.90;;;;;;5093047;28;20256;-79
2022/01/22 02:42:58;;;;;;;9.37;9.07;;;2.20;99.90;;;;;;5086190;28;20283;-79
2022/01/22 02:45:26;;;;;;;9.30;9.00;;;2.20;99.90;;;;;;5085706;28;20218;-79
2022/01/22 02:47:54;;;;;;;9.40;9.10;;;2.20;99.90;;;;;;5087249;28;20241;-79
2022/01/22 02:50:24;;;;;;;9.30;9.00;;;2.20;99.90;;;;;;5092937;28;20297;-79
2022/01/22 02:52:56;;;;;;;8.97;8.67;;;2.20;99.90;;;;;;5088523;28;20284;-80
2022/01/22 02:55:23;;;;;;;9.30;9.00;;;2.20;99.90;;;;;;5087531;28;20229;-79
2022/01/22 02:57:52;;;;;;;9.40;9.10;;;2.20;99.90;;;;;;5086904;28;20237;-79
2022/01/22 03:00:22;;;;;;;9.30;9.00;;;2.20;99.90;;;;;;5085617;28;20264;-79
2022/01/22 03:02:51;;;;;;;9.30;9.00;;;2.20;99.90;;;;;;5085153;28;20230;-79
2022/01/22 03:05:21;;;;;;;9.20;8.90;;;2.30;99.90;;;;;;5085507;28;20236;-79
2022/01/22 03:07:52;;;;;;;9.10;8.80;;;2.30;99.90;;;;;;5085345;28;20226;-79
2022/01/22 03:10:29;;;;;;;9.30;9.00;;;2.30;99.90;;;;;;5084929;28;20237;-79
2022/01/22 03:16:07;;;;;;;9.20;8.90;;;2.30;99.90;;;;;;5056527;28;20234;-80
2022/01/22 03:18:47;;;;;;;9.40;9.10;;;2.30;99.90;;;;;;5082586;28;20230;-79
2022/01/22 03:29:36;;;;;;;9.20;8.90;;;2.30;99.90;;;;;;5081061;28;20254;-80
2022/01/22 03:32:12;;;;;;;9.60;9.30;;;2.30;99.90;;;;;;5081424;28;20336;-80
2022/01/22 03:34:44;;;;;;;9.27;8.97;;;2.30;99.90;;;;;;5081338;28;20283;-80
2022/01/22 03:37:17;;;;;;;9.23;8.93;;;2.30;99.90;;;;;;5081786;28;20290;-80
2022/01/22 03:39:46;;;;;;;9.40;9.10;;;2.30;99.90;;;;;;5081524;28;20234;-79
2022/01/22 03:42:18;;;;;;;9.30;9.00;;;2.40;99.90;;;;;;5081776;28;20265;-80
2022/01/22 03:44:46;;;;;;;9.20;8.90;;;2.40;99.90;;;;;;5082302;28;20234;-80
2022/01/22 03:47:15;;;;;;;9.20;8.90;;;2.30;99.90;;;;;;5082005;28;20230;-80
2022/01/22 03:49:45;;;;;;;9.20;8.90;;;2.40;99.90;;;;;;5082188;28;20238;-80
2022/01/22 03:52:14;;;;;;;9.27;8.97;;;2.40;99.90;;;;;;5082586;28;20295;-79
2022/01/22 03:54:44;;;;;;;8.93;8.63;;;2.40;99.90;;;;;;5082520;28;20659;-80
2022/01/22 03:57:15;;;;;;;9.33;9.03;;;2.40;99.90;;;;;;5082916;28;20295;-80
2022/01/22 03:59:45;;;;;;;9.13;8.83;;;2.40;99.90;;;;;;5084357;28;20241;-80
2022/01/22 04:02:49;;;;;;;9.23;8.93;;;2.40;99.90;;;;;;5088747;28;20245;-80
2022/01/22 04:05:14;;;;;;;9.10;8.80;;;2.40;99.90;;;;;;5086137;28;20225;-80
2022/01/22 04:10:36;;;;;;;8.90;8.60;;;2.40;99.90;;;;;;5049490;28;20234;-79
2022/01/22 04:13:10;;;;;;;8.97;8.67;;;2.40;99.90;;;;;;5097520;28;20245;-79
2022/01/22 04:15:42;;;;;;;9.07;8.77;;;2.40;99.90;;;;;;5096425;28;20204;-80
2022/01/22 04:26:35;;;;;;;8.83;8.53;;;2.50;99.90;;;;;;5097799;28;20222;-80
2022/01/22 04:29:05;;;;;;;8.90;8.60;;;2.50;99.90;;;;;;5098085;28;20230;-79
2022/01/22 04:31:32;;;;;;;9.20;8.90;;;2.50;99.90;;;;;;5098388;28;20256;-79
2022/01/22 04:34:01;;;;;;;9.20;8.90;;;2.50;99.90;;;;;;5098018;28;20205;-80
2022/01/22 04:36:31;;;;;;;8.93;8.63;;;2.40;99.90;;;;;;5097690;28;20225;-79
2022/01/22 04:39:00;;;;;;;9.10;8.80;;;2.50;99.90;;;;;;5098992;28;20248;-80
2022/01/22 04:41:29;;;;;;;9.10;8.80;;;2.50;99.90;;;;;;5094181;28;20238;-80
2022/01/22 04:44:01;;;;;;;8.97;8.67;;;2.50;99.90;;;;;;5092951;28;20234;-80
2022/01/22 04:52:30;;;;;;;9.00;8.70;;;2.50;99.90;;;;;;5089546;28;20305;-80
2022/01/22 04:57:46;;;;;;;9.10;8.80;;;2.50;99.90;;;;;;5088134;28;20217;-79
2022/01/22 05:00:17;;;;;;;8.87;8.57;;;2.50;99.90;;;;;;5091116;28;20296;-80
2022/01/22 05:02:46;;;;;;;8.83;8.53;;;2.50;99.90;;;;;;5090410;28;20238;-80
2022/01/22 05:05:14;;;;;;;8.80;8.50;;;2.60;99.90;;;;;;5089264;28;20238;-80
2022/01/22 05:07:42;;;;;;;8.90;8.60;;;2.50;99.90;;;;;;5089535;28;20210;-80
2022/01/22 05:10:13;;;;;;;9.00;8.70;;;2.50;99.90;;;;;;5088904;28;20272;-80
2022/01/22 05:12:41;;;;;;;9.10;8.80;;;2.50;99.90;;;;;;5092355;28;20234;-80
2022/01/22 05:15:11;;;;;;;9.00;8.70;;;2.50;99.90;;;;;;5093626;28;20226;-80
2022/01/22 05:17:42;;;;;;;8.87;8.57;;;2.50;99.90;;;;;;5094969;28;20229;-80
2022/01/22 05:20:18;;;;;;;9.10;8.80;;;2.50;99.90;;;;;;5109328;22;20301;-80
2022/01/22 05:22:55;;;;;;;8.80;8.50;;;2.50;99.90;;;;;;5089328;28;20268;-79
2022/01/22 05:25:28;;;;;;;8.93;8.63;;;2.60;99.90;;;;;;5086158;28;20222;-80
2022/01/22 05:28:11;;;;;;;9.20;8.90;;;2.60;99.90;;;;;;5099700;28;20214;-80
2022/01/22 05:38:49;;;;;;;9.30;9.00;;;2.60;99.90;;;;;;5097364;28;20301;-79
2022/01/22 05:41:17;;;;;;;9.13;8.83;;;2.60;99.90;;;;;;5097526;28;20258;-79
2022/01/22 05:43:45;;;;;;;9.40;9.10;;;2.60;99.90;;;;;;5097923;28;20241;-79
2022/01/22 05:46:12;;;;;;;9.40;9.10;;;2.70;99.90;;;;;;5097938;28;20236;-79
2022/01/22 05:48:40;;;;;;;9.33;9.03;;;2.70;99.90;;;;;;5093604;28;20222;-80
2022/01/22 05:51:09;;;;;;;9.60;9.30;;;2.70;99.90;;;;;;5098082;28;20221;-80
2022/01/22 05:53:42;;;;;;;9.57;9.27;;;2.60;99.90;;;;;;5097748;28;20256;-81
2022/01/22 06:01:50;;;;;;;9.50;9.20;;;2.70;99.90;;;;;;5085625;28;20222;-81
2022/01/22 06:04:18;;;;;;;9.70;9.40;;;2.70;99.90;;;;;;5085183;28;20265;-80
2022/01/22 06:06:47;;;;;;;9.60;9.30;;;2.60;99.90;;;;;;5086347;28;20293;-80
2022/01/22 06:09:15;;;;;;;9.70;9.40;;;2.60;99.90;;;;;;5084707;28;20250;-80
2022/01/22 06:11:54;;;;;;;9.60;9.30;;;2.60;99.90;;;;;;5083239;28;20237;-80
2022/01/22 06:14:22;;;;;;;9.23;8.93;;;2.60;99.90;;;;;;5083576;28;20245;-80
2022/01/22 06:16:50;;;;;;;9.47;9.17;;;2.60;99.90;;;;;;5083605;28;20315;-80
2022/01/22 06:19:18;;;;;;;9.40;9.10;;;2.60;99.90;;;;;;5082824;28;20226;-80
2022/01/22 06:21:50;;;;;;;9.40;9.10;;;2.60;99.90;;;;;;5082241;28;20288;-81
2022/01/22 06:24:18;;;;;;;9.53;9.23;;;2.60;99.90;;;;;;5082515;28;20234;-80
2022/01/22 06:26:46;;;;;;;9.50;9.20;;;2.60;99.90;;;;;;5082268;28;20234;-81
2022/01/22 06:29:14;;;;;;;9.50;9.20;;;2.60;99.90;;;;;;5082805;28;20210;-80
2022/01/22 06:31:42;;;;;;;9.40;9.10;;;2.60;99.90;;;;;;5081836;28;20234;-80
2022/01/22 06:34:10;;;;;;;9.33;9.03;;;2.60;99.90;;;;;;5082251;28;20222;-80
2022/01/22 06:36:38;;;;;;;9.20;8.90;;;2.60;99.90;;;;;;5081250;28;20229;-81
2022/01/22 06:39:13;;;;;;;9.30;9.00;;;2.50;99.90;;;;;;5081868;28;20284;-81
2022/01/22 06:41:47;;;;;;;9.17;8.87;;;2.40;99.90;;;;;;5081722;28;20256;-81
2022/01/22 06:44:17;;;;;;;9.53;9.23;;;2.50;99.90;;;;;;5081097;28;20237;-81
2022/01/22 06:46:47;;;;;;;9.30;9.00;;;2.50;99.90;;;;;;5081487;28;20226;-81
2022/01/22 06:49:16;;;;;;;9.50;9.20;;;2.50;99.90;;;;;;5087712;28;20215;-81
2022/01/22 06:51:44;;;;;;;9.20;8.90;;;2.50;99.90;;;;;;5086670;28;20234;-81
2022/01/22 06:54:14;;;;;;;9.20;8.90;;;2.50;99.90;;;;;;5082004;28;20230;-80
2022/01/22 06:56:42;;;;;;;9.37;9.07;;;2.50;99.90;;;;;;5081237;28;20218;-80
2022/01/22 06:59:13;;;;;;;9.57;9.27;;;2.50;99.90;;;;;;5081685;28;20237;-81
2022/01/22 07:01:41;;;;;;;9.60;9.30;;;2.50;99.90;;;;;;5081154;28;20230;-80
2022/01/22 07:04:09;;;;;;;9.50;9.20;;;2.50;99.90;;;;;;5080932;28;20333;-80
2022/01/22 07:06:37;;;;;;;9.63;9.33;;;2.50;99.90;;;;;;5081107;28;20230;-80
2022/01/22 07:09:05;;;;;;;9.47;9.17;;;2.50;99.90;;;;;;5082153;28;20241;-81
2022/01/22 07:11:34;;;;;;;9.50;9.20;;;2.50;99.90;;;;;;5080638;28;20237;-81
2022/01/22 07:14:03;;;;;;;9.47;9.17;;;2.50;99.90;;;;;;5081390;28;20238;-81
2022/01/22 07:16:31;;;;;;;9.37;9.07;;;2.50;99.90;;;;;;5080951;28;20230;-80
2022/01/22 07:19:00;;;;;;;9.63;9.33;;;2.50;99.90;;;;;;5080440;28;20219;-80
2022/01/22 07:21:29;;;;;;;9.40;9.10;;;2.50;99.90;;;;;;5080374;28;20248;-80
2022/01/22 07:26:44;;;;;;;9.60;9.30;;;2.50;99.90;;;;;;5080648;28;20214;-80
2022/01/22 07:29:12;;;;;;;9.60;9.30;;;2.50;99.90;;;;;;5080536;28;20237;-80
2022/01/22 07:31:40;;;;;;;9.70;9.40;;;2.50;99.90;;;;;;5080518;28;20280;-80
2022/01/22 07:34:08;;;;;;;9.67;9.37;;;2.50;99.90;;;;;;5080245;28;20236;-81
2022/01/22 07:36:36;;;;;;;9.40;9.10;;;2.50;99.90;;;;;;5081721;28;20249;-82
2022/01/22 07:39:04;;;;;;;9.40;9.10;;;2.60;99.90;;;;;;5085928;28;20226;-81
2022/01/22 07:41:32;;;;;;;9.33;9.03;;;2.60;99.90;;;;;;5082169;28;20230;-81
2022/01/22 07:44:02;;;;;;;9.50;9.20;;;2.60;99.90;;;;;;5080679;28;20242;-82
2022/01/22 07:46:29;;;;;;;9.33;9.03;;;2.50;99.90;;;;;;5080529;28;20265;-81
2022/01/22 07:48:57;;;;;;;9.50;9.20;;;2.50;99.90;;;;;;5080484;28;20223;-81
2022/01/22 07:51:25;;;;;;;9.50;9.20;;;2.60;99.90;;;;;;5080423;28;20234;-82
2022/01/22 07:53:53;;;;;;;9.50;9.20;;;2.50;99.90;;;;;;5079411;28;20244;-81
2022/01/22 07:56:21;;;;;;;9.17;8.87;;;2.60;99.90;;;;;;5080725;28;20222;-82
2022/01/22 07:58:48;;;;;;;9.50;9.20;;;2.60;99.90;;;;;;5080672;28;20215;-82
2022/01/22 08:01:18;;;;;;;9.80;9.50;;;2.50;99.90;;;;;;5078660;28;20421;-82
2022/01/22 08:03:46;;;;;;;9.63;9.33;;;2.60;99.90;;;;;;5080646;28;20299;-82
2022/01/22 08:06:14;;;;;;;9.47;9.17;;;2.70;99.90;;;;;;5089909;28;20238;-82
2022/01/22 08:08:42;;;;;;;8.90;8.60;;;2.70;99.90;;;;;;5083054;28;20260;-83
2022/01/22 08:11:09;;;;;;;9.20;8.90;;;2.70;99.90;;;;;;5082182;28;20297;-83
2022/01/22 08:13:37;;;;;;;9.23;8.93;;;2.80;99.90;;;;;;5081510;28;20225;-83
2022/01/22 08:16:05;;;;;;;9.20;8.90;;;2.80;99.90;;;;;;5080884;28;20237;-82
2022/01/22 08:18:35;;;;;;;9.20;8.90;;;2.70;99.90;;;;;;5081612;28;20222;-82
2022/01/22 08:21:03;;;;;;;9.27;8.97;;;2.70;99.90;;;;;;5080436;28;20257;-81
2022/01/22 08:23:32;;;;;;;9.00;8.70;;;2.70;99.90;;;;;;5081859;28;20240;-81
2022/01/22 08:26:04;;;;;;;9.27;8.97;;;2.70;99.90;;;;;;5081130;28;20256;-80
2022/01/22 08:31:24;;;;;;;9.00;8.70;;;2.70;99.90;;;;;;5080482;28;20240;-83
2022/01/22 08:36:39;;;;;;;8.90;8.60;;;2.80;99.90;;;;;;5081029;28;20226;-83
2022/01/22 08:39:07;;;;;;;8.80;8.50;;;2.80;99.90;;;;;;5083151;28;20218;-80
2022/01/22 08:41:35;;;;;;;8.73;8.47;;;2.80;99.90;;;;;;5083019;28;20304;-81
2022/01/22 08:44:05;;;;;;;8.63;8.43;;;2.80;99.90;;;;;;5082005;28;20238;-80
2022/01/22 08:46:35;;;;;;;8.90;8.60;;;2.80;99.90;;;;;;5078593;28;20221;-83
2022/01/22 08:49:05;;;;;;;8.73;8.50;;;2.80;99.90;;;;;;5080233;28;20280;-83
2022/01/22 08:51:33;;;;;;;8.97;8.67;;;2.90;99.90;;;;;;5084964;28;20249;-82
2022/01/22 08:54:02;;;;;;;9.10;8.80;;;2.80;99.90;;;;;;5086925;28;20257;-83
2022/01/22 08:56:30;;;;;;;9.00;8.70;;;2.80;99.90;;;;;;5081599;28;20234;-83
2022/01/22 08:58:59;;;;;;;9.10;8.80;;;2.90;99.90;;;;;;5079791;28;20237;-84
2022/01/22 09:01:28;;;;;;;9.10;8.80;;;2.90;99.90;;;;;;5077629;28;20249;-83
2022/01/22 09:03:57;;;;;;;9.27;8.97;;;2.90;99.90;;;;;;5077729;28;20242;-83
2022/01/22 09:06:28;;;;;;;9.10;8.80;;;2.90;99.90;;;;;;5078069;28;20238;-83
2022/01/22 09:09:05;;;;;;;9.13;8.83;;;2.90;99.90;;;;;;5078287;28;20838;-83
2022/01/22 09:11:33;;;;;;;9.30;9.00;;;2.90;99.90;;;;;;5078728;28;20245;-83
2022/01/22 09:14:02;;;;;;;9.30;9.00;;;3.00;99.90;;;;;;5078559;28;20230;-83
2022/01/22 09:16:30;;;;;;;9.17;8.87;;;2.90;99.90;;;;;;5078084;28;20284;-83
2022/01/22 09:19:05;;;;;;;9.40;9.10;;;3.00;99.90;;;;;;5078966;28;20257;-83
2022/01/22 09:21:36;;;;;;;9.40;9.10;;;3.00;99.90;;;;;;5078364;28;20327;-83
2022/01/22 09:24:05;;;;;;;9.47;9.17;;;3.00;99.90;;;;;;5081139;28;20234;-83
2022/01/22 09:26:33;;;;;;;9.30;9.00;;;3.00;99.90;;;;;;5082183;28;20222;-83
2022/01/22 09:29:01;;;;;;;9.20;8.90;;;3.00;99.90;;;;;;5082827;28;20282;-83
2022/01/22 09:31:31;;;;;;;9.20;8.90;;;3.00;99.90;;;;;;5082734;28;20719;-85
2022/01/22 09:34:00;;;;;;;9.30;9.00;;;3.10;99.90;;;;;;5082534;28;20230;-83
2022/01/22 09:36:31;;;;;;;9.20;8.90;;;3.10;99.90;;;;;;5082247;28;20264;-83
2022/01/22 09:39:00;;;;;;;9.00;8.70;;;3.10;99.90;;;;;;5081779;28;20224;-83
2022/01/22 09:41:29;;;;;;;9.40;9.10;;;3.10;99.90;;;;;;5082103;28;20238;-83
2022/01/22 09:43:57;;;;;;;9.33;9.03;;;3.10;99.90;;;;;;5081668;28;20376;-82
2022/01/22 09:46:27;;;;;;;9.40;9.10;;;3.10;99.90;;;;;;5082171;28;20709;-83
2022/01/22 09:48:57;;;;;;;9.40;9.10;;;3.20;99.90;;;;;;5082466;28;20218;-83
2022/01/22 09:51:26;;;;;;;9.30;9.00;;;3.20;99.90;;;;;;5081844;28;20234;-83
2022/01/22 09:53:54;;;;;;;9.10;8.80;;;3.20;99.90;;;;;;5082218;28;20317;-84
2022/01/22 09:56:27;;;;;;;9.23;8.93;;;3.20;99.90;;;;;;5082761;28;20234;-84
2022/01/22 09:58:55;;;;;;;9.30;9.00;;;3.10;99.90;;;;;;5081787;28;20218;-81
2022/01/22 10:01:27;;;;;;;9.50;9.20;;;3.20;99.90;;;;;;5080799;28;20226;-81
2022/01/22 10:03:58;;;;;;;9.10;8.80;;;3.20;99.90;;;;;;5082832;28;20242;-84
2022/01/22 10:06:29;;;;;;;9.30;9.00;;;3.20;99.90;;;;;;5094630;28;20206;-83
2022/01/22 10:09:09;;;;;;;9.30;9.00;;;3.20;99.90;;;;;;5100049;28;20262;-82
2022/01/22 10:11:39;;;;;;;9.13;8.83;;;3.30;99.90;;;;;;5091085;28;20234;-82
2022/01/22 10:14:08;;;;;;;9.37;9.07;;;3.20;99.90;;;;;;5082104;28;20245;-82
2022/01/22 10:16:39;;;;;;;9.20;8.90;;;3.30;99.90;;;;;;5082355;28;20233;-83
2022/01/22 10:19:18;;;;;;;9.50;9.20;;;3.30;99.90;;;;;;5082094;28;20230;-83
2022/01/22 10:21:49;;;;;;;9.00;8.70;;;3.30;99.90;;;;;;5081092;28;20234;-84
2022/01/22 10:24:36;;;;;;;9.27;8.97;;;3.30;99.90;;;;;;5081273;28;20219;-83
2022/01/22 10:27:26;;;;;;;9.10;8.80;;;3.30;99.90;;;;;;5082063;28;20210;-82
2022/01/22 10:29:58;;;;;;;9.23;8.93;;;3.30;99.90;;;;;;5081487;28;20237;-82
2022/01/22 10:32:37;;;;;;;9.20;8.90;;;3.30;99.90;;;;;;5079912;28;20230;-82
2022/01/22 10:35:10;;;;;;;9.20;8.90;;;3.30;99.90;;;;;;5081784;28;20241;-84
2022/01/22 10:37:39;;;;;;;9.23;8.93;;;3.40;99.90;;;;;;5082214;28;20287;-83
2022/01/22 10:40:27;;;;;;;9.03;8.73;;;3.40;99.90;;;;;;5082197;28;20230;-83
2022/01/22 10:43:16;;;;;;;9.20;8.90;;;3.40;99.90;;;;;;5082397;28;20233;-84
2022/01/22 10:46:07;;;;;;;9.20;8.90;;;3.40;99.90;;;;;;5082703;28;20230;-84
2022/01/22 10:48:38;;;;;;;9.30;9.00;;;3.40;99.90;;;;;;5083730;28;20268;-82
2022/01/22 10:51:09;;;;;;;9.00;8.70;;;3.50;99.90;;;;;;5084848;28;20288;-82
2022/01/22 10:53:44;;;;;;;9.10;8.80;;;3.70;99.90;;;;;;5090254;28;20231;-83
2022/01/22 10:56:17;;;;;;;9.10;8.80;;;3.60;99.90;;;;;;5084021;28;20241;-82
2022/01/22 10:59:00;;;;;;;9.80;9.50;;;3.50;99.90;;;;;;5083392;28;20245;-83
2022/01/22 11:01:30;;;;;;;9.50;9.20;;;3.40;99.90;;;;;;5082586;28;20717;-83
2022/01/22 11:04:08;;;;;;;9.00;8.70;;;3.30;99.90;;;;;;5088255;28;20246;-83
2022/01/22 11:06:36;;;;;;;9.10;8.80;;;3.30;99.90;;;;;;5082347;28;20249;-83
2022/01/22 11:09:07;;;;;;;9.20;8.90;;;3.30;99.90;;;;;;5081987;28;20261;-83
2022/01/22 11:11:37;;;;;;;9.10;8.80;;;3.30;99.90;;;;;;5081231;28;20237;-83
2022/01/22 11:14:09;;;;;;;8.90;8.60;;;3.40;99.90;;;;;;5081416;28;20230;-83
2022/01/22 11:16:40;;;;;;;9.20;8.90;;;3.40;99.90;;;;;;5082405;28;20230;-82
2022/01/22 11:19:09;;;;;;;9.07;8.77;;;3.40;99.90;;;;;;5081147;28;20237;-82
2022/01/22 11:21:44;;;;;;;9.30;9.00;;;3.40;99.90;;;;;;5096199;22;20219;-82
2022/01/22 11:24:13;;;;;;;9.23;8.93;;;3.40;99.90;;;;;;5086215;28;20237;-82
2022/01/22 11:26:50;;;;;;;9.27;8.97;;;3.40;99.90;;;;;;5070272;28;20223;-82
2022/01/22 11:29:28;;;;;;;9.30;9.00;;;3.40;99.90;;;;;;5084350;28;20222;-82
2022/01/22 11:34:44;;;;;;;9.40;9.10;;;3.50;99.90;;;;;;5043896;28;20334;-83
2022/01/22 11:37:22;;;;;;;9.50;9.20;;;3.40;99.90;;;;;;5047803;28;20238;-84
2022/01/22 11:40:10;;;;;;;9.50;9.20;;;3.50;99.90;;;;;;5045726;28;20234;-84
2022/01/22 11:43:00;;;;;;;9.37;9.07;;;3.40;99.90;;;;;;5045061;28;20220;-84
2022/01/22 11:45:36;;;;;;;9.50;9.20;;;3.40;99.90;;;;;;5046733;28;20264;-86
2022/01/22 11:48:22;;;;;;;9.60;9.30;;;3.40;99.90;;;;;;5047856;28;20242;-83
2022/01/22 11:50:52;;;;;;;9.17;8.87;;;3.40;99.90;;;;;;5050914;28;20234;-82
2022/01/22 11:53:32;;;;;;;9.20;8.90;;;3.30;99.90;;;;;;5059041;28;20215;-84
2022/01/22 11:56:24;;;;;;;9.10;8.80;;;3.40;99.90;;;;;;5059721;28;20215;-81
2022/01/22 11:59:23;;;;;;;9.20;8.90;;;3.40;99.90;;;;;;5056368;28;20239;-83
2022/01/22 12:02:11;;;;;;;9.23;8.93;;;3.40;99.90;;;;;;5048781;28;20290;-83
2022/01/22 12:05:05;;;;;;;8.90;8.60;;;3.40;99.90;;;;;;5052863;28;20243;-83
2022/01/22 12:07:35;;;;;;;9.00;8.70;;;3.50;99.90;;;;;;5071417;28;20226;-83
2022/01/22 12:16:15;;;;;;;9.10;8.80;;;3.40;99.90;;;;;;5066185;28;20222;-83
2022/01/22 12:18:58;;;;;;;9.27;8.97;;;3.40;99.90;;;;;;5066409;28;20230;-84
2022/01/22 12:21:38;;;;;;;9.33;9.03;;;3.40;99.90;;;;;;5066384;28;20258;-83
2022/01/22 12:24:12;;;;;;;9.23;8.93;;;3.40;99.90;;;;;;5067637;28;20223;-83
2022/01/22 12:26:59;;;;;;;9.30;9.00;;;3.40;99.90;;;;;;5068315;28;20250;-84
2022/01/22 12:29:43;;;;;;;9.20;8.90;;;3.40;99.90;;;;;;5066605;28;20221;-82
2022/01/22 12:32:35;;;;;;;9.40;9.10;;;3.50;99.90;;;;;;5068917;28;20239;-84
2022/01/22 12:35:17;;;;;;;9.23;8.93;;;3.50;99.90;;;;;;5070960;28;20237;-83
2022/01/22 12:40:34;;;;;;;9.20;8.90;;;3.50;99.90;;;;;;5065218;28;20234;-83
2022/01/22 12:45:58;;;;;;;8.97;8.67;;;3.50;99.90;;;;;;5068025;28;20242;-83
2022/01/22 12:54:01;;;;;;;9.30;9.00;;;3.50;99.90;;;;;;5065312;28;20234;-83
2022/01/22 12:56:51;;;;;;;9.00;8.70;;;3.50;99.90;;;;;;5065262;28;20254;-83
2022/01/22 12:59:19;;;;;;;8.93;8.63;;;3.60;99.90;;;;;;5068582;28;20281;-83
2022/01/22 13:01:51;;;;;;;8.90;8.60;;;3.60;99.90;;;;;;5069835;28;20346;-82
2022/01/22 13:04:25;;;;;;;8.70;8.50;;;3.60;99.90;;;;;;5079191;28;20215;-85
2022/01/22 13:07:04;;;;;;;8.90;8.60;;;3.60;99.90;;;;;;5071505;28;20234;-83
2022/01/22 13:09:55;;;;;;;8.70;8.50;;;3.60;99.90;;;;;;5068649;28;20242;-84
2022/01/22 13:12:24;;;;;;;8.60;8.40;;;3.60;99.90;;;;;;5069159;28;20297;-83
2022/01/22 13:14:58;;;;;;;9.00;8.70;;;3.60;99.90;;;;;;5066707;28;20230;-83
2022/01/22 13:17:30;;;;;;;8.80;8.50;;;3.60;99.90;;;;;;5067884;28;20241;-83
2022/01/22 13:19:59;;;;;;;9.00;8.70;;;3.60;99.90;;;;;;5067765;28;20226;-82
2022/01/22 13:22:56;;;;;;;9.10;8.80;;;3.60;99.90;;;;;;5069181;28;20265;-83
2022/01/22 13:25:32;;;;;;;8.90;8.60;;;3.60;99.90;;;;;;5068921;28;20250;-83
2022/01/22 13:28:04;;;;;;;9.30;9.00;;;3.60;99.90;;;;;;5067352;28;20238;-82
2022/01/22 13:30:43;;;;;;;9.17;8.87;;;3.60;99.90;;;;;;5079705;28;20237;-82
2022/01/22 13:33:22;;;;;;;9.27;8.97;;;3.60;99.90;;;;;;5080808;28;20211;-82
2022/01/22 13:36:07;;;;;;;8.93;8.63;;;3.60;99.90;;;;;;5075323;28;20225;-82
2022/01/22 13:38:57;;;;;;;8.90;8.60;;;3.60;99.90;;;;;;5057103;28;20228;-82
2022/01/22 13:49:43;;;;;;;8.53;8.30;;;3.60;99.90;;;;;;5072073;28;20223;-82
2022/01/22 13:52:13;;;;;;;8.90;8.60;;;3.70;99.90;;;;;;5071414;28;20289;-83
2022/01/22 13:54:53;;;;;;;8.80;8.50;;;3.60;99.90;;;;;;5074816;28;20223;-82
2022/01/22 13:57:23;;;;;;;9.07;8.77;;;3.60;99.90;;;;;;5075241;28;20231;-81
2022/01/22 13:59:59;;;;;;;9.00;8.70;;;3.70;99.90;;;;;;5071864;28;20316;-83
2022/01/22 14:02:50;;;;;;;8.77;8.47;;;3.70;99.90;;;;;;5067265;28;20982;-83
2022/01/22 14:08:03;;;;;;;8.90;8.60;;;3.70;99.90;;;;;;5050337;28;20307;-82
2022/01/22 14:10:41;;;;;;;9.00;8.70;;;3.70;99.90;;;;;;5049660;28;20293;-84
2022/01/22 14:13:13;;;;;;;8.80;8.50;;;3.70;99.90;;;;;;5050107;28;20219;-83
2022/01/22 14:15:49;;;;;;;8.80;8.50;;;3.80;99.90;;;;;;5050029;28;20266;-84
2022/01/22 14:18:22;;;;;;;8.90;8.60;;;3.70;99.90;;;;;;5060007;28;20231;-81
2022/01/22 14:20:57;;;;;;;8.80;8.50;;;3.70;99.90;;;;;;5063847;28;20266;-82
2022/01/22 14:23:35;;;;;;;8.77;8.47;;;3.70;99.90;;;;;;5060380;28;20238;-81
2022/01/22 14:28:54;;;;;;;9.00;8.70;;;3.70;99.90;;;;;;5052748;28;20226;-82
2022/01/22 14:31:29;;;;;;;9.00;8.70;;;3.80;99.90;;;;;;5061623;28;20242;-82
2022/01/22 14:34:00;;;;;;;8.87;8.57;;;3.70;99.90;;;;;;5060845;28;20214;-82
2022/01/22 14:36:31;;;;;;;8.83;8.53;;;3.70;99.90;;;;;;5053272;28;20230;-81
2022/01/22 14:39:17;;;;;;;9.10;8.80;;;3.80;99.90;;;;;;5057854;28;20307;-81
2022/01/22 14:44:50;;;;;;;8.90;8.60;;;3.80;99.90;;;;;;5073475;28;20305;-82
2022/01/22 14:47:21;;;;;;;9.20;8.90;;;3.80;99.90;;;;;;5073372;28;20237;-82
2022/01/22 14:49:56;;;;;;;9.10;8.80;;;3.80;99.90;;;;;;5060765;28;20236;-82
2022/01/22 14:52:26;;;;;;;8.90;8.60;;;3.80;99.90;;;;;;5052157;28;20235;-82
2022/01/22 14:54:57;;;;;;;9.17;8.87;;;3.80;99.90;;;;;;5070227;28;20215;-83
2022/01/22 14:57:35;;;;;;;9.13;8.83;;;3.90;99.90;;;;;;5059766;28;20241;-82
2022/01/22 15:00:15;;;;;;;9.00;8.70;;;3.90;99.90;;;;;;5059099;28;20234;-83
2022/01/22 15:02:50;;;;;;;8.90;8.60;;;3.90;99.90;;;;;;5053908;28;20247;-82
2022/01/22 15:05:21;;;;;;;8.90;8.60;;;3.80;99.90;;;;;;5069756;28;20241;-83
2022/01/22 15:07:49;;;;;;;9.00;8.70;;;3.80;99.90;;;;;;5073437;28;20387;-82
2022/01/22 15:10:29;;;;;;;8.90;8.60;;;3.90;99.90;;;;;;5088993;28;20298;-83
2022/01/22 15:13:07;;;;;;;9.00;8.70;;;3.90;99.90;;;;;;5070299;28;20224;-83
2022/01/22 15:15:41;;;;;;;9.03;8.73;;;3.90;99.90;;;;;;5079777;28;20211;-82
2022/01/22 15:18:26;;;;;;;8.87;8.57;;;3.90;99.90;;;;;;5059428;28;20242;-82
2022/01/22 15:20:54;;;;;;;8.83;8.53;;;3.90;99.90;;;;;;5052158;28;20254;-82
2022/01/22 15:23:22;;;;;;;8.90;8.60;;;3.90;99.90;;;;;;5050558;28;20235;-83
2022/01/22 15:25:50;;;;;;;9.30;9.00;;;3.90;99.90;;;;;;5050089;28;20712;-83
2022/01/22 15:32:48;;;;;;;8.80;8.50;;;3.90;99.90;;;;;;5059130;28;20305;-85